Time;durP1;ratioP1;P1;durP2;ratioP2;P2;SDS_P1;SDS_P2;PMS_P1;PMS_P2;Temp;Humidity;BMP_temperature;BMP_pressure;BME280_temperature;BME280_humidity;BME280_pressure;Samples;Min_cycle;Max_cycle;Signal;HPM_P1;HPM_P2
2022/11/18 00:00:52;;;;;;;3.88;0.40;;;7.90;99.90;;;;;;5033803;28;20021;-69
2022/11/18 00:03:18;;;;;;;1.45;0.50;;;7.90;99.90;;;;;;5044391;28;20032;-68
2022/11/18 00:05:55;;;;;;;1.58;0.40;;;7.80;99.90;;;;;;5036951;28;20057;-69
2022/11/18 00:08:21;;;;;;;1.65;0.40;;;7.80;99.90;;;;;;5048327;28;20044;-69
2022/11/18 00:10:47;;;;;;;0.90;0.57;;;7.80;99.90;;;;;;5039727;28;20025;-68
2022/11/18 00:16:08;;;;;;;2.75;0.50;;;7.80;99.90;;;;;;5034840;28;20036;-69
2022/11/18 00:18:34;;;;;;;3.38;0.35;;;7.90;99.90;;;;;;5045206;28;20095;-68
2022/11/18 00:21:04;;;;;;;1.15;0.30;;;7.80;99.90;;;;;;5040407;28;20381;-68
2022/11/18 00:23:30;;;;;;;0.90;0.40;;;7.80;99.90;;;;;;5049164;28;20152;-72
2022/11/18 00:26:11;;;;;;;1.05;0.43;;;7.80;99.90;;;;;;5040790;28;20113;-71
2022/11/18 00:28:37;;;;;;;;;;;7.70;99.90;;;;;;5039275;28;20024;-67
2022/11/18 00:31:11;;;;;;;0.73;0.25;;;7.70;99.90;;;;;;5031084;28;19913;-69
2022/11/18 00:33:37;;;;;;;0.60;0.20;;;7.70;99.90;;;;;;5030272;28;20517;-68
2022/11/18 00:36:04;;;;;;;0.73;0.20;;;7.70;99.90;;;;;;5032902;28;20040;-68
2022/11/18 00:38:30;;;;;;;0.32;0.10;;;7.70;99.90;;;;;;5045188;28;20751;-71
2022/11/18 00:41:05;;;;;;;0.57;0.28;;;7.70;99.90;;;;;;5049813;28;20037;-70
2022/11/18 00:43:31;;;;;;;2.33;0.35;;;7.70;99.90;;;;;;5035164;28;20029;-69
2022/11/18 00:45:57;;;;;;;1.08;0.20;;;7.70;99.90;;;;;;5030542;28;20025;-68
2022/11/18 00:48:23;;;;;;;0.80;0.30;;;7.70;99.90;;;;;;5030379;28;20029;-68
2022/11/18 00:50:54;;;;;;;45.22;1.20;;;7.70;99.90;;;;;;5040438;28;20213;-68
2022/11/18 00:53:22;;;;;;;168.05;4.25;;;7.70;99.90;;;;;;5044723;28;20511;-68
2022/11/18 00:55:48;;;;;;;13.15;0.52;;;7.70;99.90;;;;;;5037288;28;20088;-69
2022/11/18 00:58:14;;;;;;;198.57;4.45;;;7.60;99.90;;;;;;5029441;28;20060;-68
2022/11/18 01:00:44;;;;;;;98.50;2.47;;;7.60;99.90;;;;;;5032539;28;20457;-68
2022/11/18 01:03:11;;;;;;;0.85;0.50;;;7.50;99.90;;;;;;5048066;28;20075;-69
2022/11/18 01:05:37;;;;;;;4.65;0.50;;;7.50;99.90;;;;;;5039351;28;20029;-68
2022/11/18 01:08:05;;;;;;;1.90;0.90;;;7.50;99.90;;;;;;5037311;28;20087;-70
2022/11/18 01:10:30;;;;;;;2.65;1.20;;;7.50;99.90;;;;;;5046753;28;20473;-71
2022/11/18 01:15:42;;;;;;;3.25;1.75;;;7.50;99.90;;;;;;5023157;28;20040;-68
2022/11/18 01:18:09;;;;;;;4.07;1.60;;;7.50;99.90;;;;;;5043960;28;20038;-69
2022/11/18 01:20:35;;;;;;;4.68;1.52;;;7.50;99.90;;;;;;5028194;28;20040;-71
2022/11/18 01:23:01;;;;;;;4.20;1.75;;;7.50;99.90;;;;;;5029693;28;20049;-69
2022/11/18 01:25:27;;;;;;;5.50;1.70;;;7.50;99.90;;;;;;5035010;28;20052;-70
2022/11/18 01:27:53;;;;;;;2.50;1.30;;;7.50;99.90;;;;;;5011625;28;20041;-69
2022/11/18 01:30:19;;;;;;;2.65;1.10;;;7.60;99.90;;;;;;5040864;28;20038;-69
2022/11/18 01:32:45;;;;;;;2.78;1.02;;;7.60;99.90;;;;;;5049356;28;20029;-69
2022/11/18 01:35:11;;;;;;;5.05;1.50;;;7.60;99.90;;;;;;5048867;28;20043;-70
2022/11/18 01:37:37;;;;;;;317.27;6.95;;;7.70;99.90;;;;;;5035893;28;20041;-70
2022/11/18 01:40:04;;;;;;;18.20;1.17;;;7.60;99.90;;;;;;5031797;28;20131;-69
2022/11/18 01:42:30;;;;;;;2.58;1.20;;;7.60;99.90;;;;;;5028332;28;20029;-70
2022/11/18 01:45:16;;;;;;;3.33;1.38;;;7.50;99.90;;;;;;5028411;28;20826;-70
2022/11/18 01:47:47;;;;;;;3.30;0.73;;;7.50;99.90;;;;;;5029860;28;20394;-69
2022/11/18 01:50:16;;;;;;;3.08;0.50;;;7.50;99.90;;;;;;5030071;28;20037;-67
2022/11/18 01:52:42;;;;;;;3.05;0.30;;;7.50;99.90;;;;;;5028119;28;20033;-67
2022/11/18 01:55:22;;;;;;;0.90;0.40;;;7.60;99.90;;;;;;5035194;28;20082;-67
2022/11/18 01:57:50;;;;;;;2.67;0.50;;;7.60;99.90;;;;;;5041871;28;20025;-68
2022/11/18 02:00:16;;;;;;;1.75;0.70;;;7.60;99.90;;;;;;5033755;28;20033;-69
2022/11/18 02:02:42;;;;;;;1.00;0.55;;;7.60;99.90;;;;;;5048948;28;20032;-67
2022/11/18 02:05:10;;;;;;;1.02;0.55;;;7.70;99.90;;;;;;5045185;28;20473;-67
2022/11/18 02:07:41;;;;;;;0.90;0.50;;;7.60;99.90;;;;;;5040368;28;20036;-72
2022/11/18 02:10:08;;;;;;;0.68;0.40;;;7.60;99.90;;;;;;5040369;28;20040;-69
2022/11/18 02:12:36;;;;;;;0.88;0.45;;;7.60;99.90;;;;;;5035296;28;20044;-70
2022/11/18 02:15:02;;;;;;;0.82;0.50;;;7.60;99.90;;;;;;5028032;28;20044;-67
2022/11/18 02:17:36;;;;;;;1.67;0.60;;;7.60;99.90;;;;;;5030931;28;20032;-68
2022/11/18 02:20:08;;;;;;;1.70;0.63;;;7.60;99.90;;;;;;5033831;28;20048;-69
2022/11/18 02:23:00;;;;;;;2.83;0.40;;;7.70;99.90;;;;;;5028953;28;20057;-68
2022/11/18 02:25:51;;;;;;;1.00;0.55;;;7.70;99.90;;;;;;5036098;28;20041;-68
2022/11/18 02:28:28;;;;;;;1.67;0.70;;;7.60;99.90;;;;;;5033032;28;20048;-68
2022/11/18 02:31:13;;;;;;;2.05;0.70;;;7.60;99.90;;;;;;5020913;28;20036;-68
2022/11/18 02:33:44;;;;;;;1.42;0.55;;;7.60;99.90;;;;;;5046617;28;20158;-70
2022/11/18 02:36:21;;;;;;;0.93;0.50;;;7.60;99.90;;;;;;5039629;28;20041;-69
2022/11/18 02:39:19;;;;;;;1.35;0.60;;;7.60;99.90;;;;;;5032100;28;20466;-72
2022/11/18 02:41:48;;;;;;;3.92;0.73;;;7.60;99.90;;;;;;5031053;28;20052;-69
2022/11/18 02:44:16;;;;;;;1.50;0.60;;;7.60;99.90;;;;;;5030715;28;20393;-68
2022/11/18 02:46:45;;;;;;;1.95;0.82;;;7.60;99.90;;;;;;5046950;28;20109;-69
2022/11/18 02:49:36;;;;;;;1.67;0.80;;;7.60;99.90;;;;;;5046595;28;20112;-69
2022/11/18 02:52:03;;;;;;;3.03;1.10;;;7.50;99.90;;;;;;5036268;28;20422;-68
2022/11/18 02:54:31;;;;;;;1.67;1.00;;;7.50;99.90;;;;;;5041924;28;20045;-70
2022/11/18 02:56:57;;;;;;;2.85;0.80;;;7.50;99.90;;;;;;5047271;28;20600;-68
2022/11/18 02:59:26;;;;;;;1.63;0.60;;;7.50;99.90;;;;;;5027936;28;20467;-69
2022/11/18 03:01:52;;;;;;;2.13;0.80;;;7.50;99.90;;;;;;5034126;28;20469;-68
2022/11/18 03:04:19;;;;;;;1.95;0.60;;;7.50;99.90;;;;;;5041282;28;20033;-69
2022/11/18 03:06:59;;;;;;;2.55;0.60;;;7.50;99.90;;;;;;5047707;28;20656;-68
2022/11/18 03:09:35;;;;;;;0.77;0.47;;;7.50;99.90;;;;;;5045191;28;20063;-69
2022/11/18 03:12:28;;;;;;;1.30;0.60;;;7.50;99.90;;;;;;5041971;28;20302;-69
2022/11/18 03:15:12;;;;;;;3.40;0.90;;;7.40;99.90;;;;;;5047781;28;20106;-69
2022/11/18 03:18:02;;;;;;;1.00;0.60;;;7.40;99.90;;;;;;5045875;28;20086;-72
2022/11/18 03:20:49;;;;;;;2.05;0.68;;;7.40;99.90;;;;;;5039650;28;20033;-70
2022/11/18 03:23:43;;;;;;;1.92;0.50;;;7.40;99.90;;;;;;5021201;28;20680;-70
2022/11/18 03:26:17;;;;;;;2.03;0.75;;;7.40;99.90;;;;;;5039963;28;20080;-70
2022/11/18 03:28:45;;;;;;;8.30;0.60;;;7.30;99.90;;;;;;5031421;28;20021;-68
2022/11/18 03:31:49;;;;;;;1.77;0.70;;;7.30;99.90;;;;;;5038965;28;20112;-69
2022/11/18 03:34:36;;;;;;;1.63;0.80;;;7.30;99.90;;;;;;5033476;28;20089;-68
2022/11/18 03:37:06;;;;;;;1.45;0.70;;;7.30;99.90;;;;;;5031392;28;20179;-70
2022/11/18 03:39:36;;;;;;;1.77;0.70;;;7.30;99.90;;;;;;5040194;28;20041;-69
2022/11/18 03:42:10;;;;;;;1.98;0.80;;;7.30;99.90;;;;;;5038528;28;20037;-67
2022/11/18 03:44:40;;;;;;;2.15;0.90;;;7.30;99.90;;;;;;5032747;28;20037;-70
2022/11/18 03:47:11;;;;;;;1.15;0.52;;;7.30;99.90;;;;;;5030842;28;20037;-70
2022/11/18 03:49:52;;;;;;;2.83;0.77;;;7.30;99.90;;;;;;5034227;28;20033;-68
2022/11/18 03:52:23;;;;;;;1.25;0.70;;;7.30;99.90;;;;;;5042698;28;20037;-70
2022/11/18 03:54:53;;;;;;;1.35;0.70;;;7.30;99.90;;;;;;5035854;28;20044;-69
2022/11/18 03:57:24;;;;;;;1.48;0.80;;;7.30;99.90;;;;;;5033822;28;20044;-68
2022/11/18 04:00:04;;;;;;;4.60;0.55;;;7.30;99.90;;;;;;5034786;28;20048;-69
2022/11/18 04:02:30;;;;;;;1.65;0.40;;;7.30;99.90;;;;;;5030744;28;20757;-67
2022/11/18 04:04:57;;;;;;;1.95;0.50;;;7.30;99.90;;;;;;5042615;28;20033;-68
2022/11/18 04:07:42;;;;;;;1.90;0.28;;;7.40;99.90;;;;;;5043581;28;20572;-69
2022/11/18 04:10:15;;;;;;;2.65;0.70;;;7.40;99.90;;;;;;5029246;28;20033;-70
2022/11/18 04:12:46;;;;;;;1.67;0.50;;;7.40;99.90;;;;;;5032379;28;20630;-72
2022/11/18 04:15:12;;;;;;;5.93;0.60;;;7.40;99.90;;;;;;5044157;28;20036;-67
2022/11/18 04:17:41;;;;;;;1.67;0.73;;;7.30;99.90;;;;;;5030959;28;20037;-69
2022/11/18 04:20:15;;;;;;;1.42;0.60;;;7.30;99.90;;;;;;5033435;28;20028;-67
2022/11/18 04:22:41;;;;;;;2.53;1.20;;;7.30;99.90;;;;;;5032289;28;20076;-70
2022/11/18 04:25:07;;;;;;;1.30;0.80;;;7.30;99.90;;;;;;5039061;28;20071;-67
2022/11/18 04:27:32;;;;;;;2.30;1.00;;;7.30;99.90;;;;;;5029907;28;20033;-68
2022/11/18 04:29:58;;;;;;;2.35;0.90;;;7.20;99.90;;;;;;5045718;28;20465;-67
2022/11/18 04:32:24;;;;;;;2.63;0.90;;;7.20;99.90;;;;;;5048293;28;20144;-68
2022/11/18 04:34:49;;;;;;;1.80;0.55;;;7.20;99.90;;;;;;5040606;28;20041;-68
2022/11/18 04:37:15;;;;;;;1.38;0.75;;;7.20;99.90;;;;;;5040448;28;20072;-69
2022/11/18 04:39:40;;;;;;;2.92;0.47;;;7.20;99.90;;;;;;5035464;28;20033;-69
2022/11/18 04:42:06;;;;;;;0.85;0.20;;;7.10;99.90;;;;;;5048937;28;20448;-69
2022/11/18 04:44:33;;;;;;;1.15;0.28;;;7.10;99.90;;;;;;5044798;28;20072;-69
2022/11/18 04:47:04;;;;;;;1.65;0.28;;;7.20;99.90;;;;;;5045904;28;20036;-70
2022/11/18 04:49:30;;;;;;;2.33;0.20;;;7.10;99.90;;;;;;5034181;28;20045;-69
2022/11/18 04:51:56;;;;;;;0.28;0.10;;;7.10;99.90;;;;;;5050013;28;20044;-69
2022/11/18 04:54:23;;;;;;;1.35;0.35;;;7.10;99.90;;;;;;5048240;28;20072;-69
2022/11/18 04:56:49;;;;;;;1.02;0.35;;;7.00;99.90;;;;;;5031551;28;20138;-69
2022/11/18 04:59:17;;;;;;;1.23;0.30;;;7.00;99.90;;;;;;5019396;28;21250;-70
2022/11/18 05:01:43;;;;;;;1.10;0.30;;;7.00;99.90;;;;;;5025242;28;20030;-72
2022/11/18 05:04:13;;;;;;;1.83;0.40;;;6.90;99.90;;;;;;5030415;28;20029;-67
2022/11/18 05:06:38;;;;;;;2.15;0.35;;;6.90;99.90;;;;;;5029090;28;20034;-65
2022/11/18 05:09:04;;;;;;;2.15;0.45;;;6.90;99.90;;;;;;5030528;28;20147;-70
2022/11/18 05:14:15;;;;;;;3.08;0.40;;;6.90;99.90;;;;;;5034999;28;20044;-67
2022/11/18 05:16:40;;;;;;;2.55;0.40;;;7.00;99.90;;;;;;5033631;28;20033;-65
2022/11/18 05:19:07;;;;;;;1.27;0.35;;;6.90;99.90;;;;;;5029909;28;20056;-67
2022/11/18 05:21:33;;;;;;;1.33;0.50;;;6.90;99.90;;;;;;5013561;28;20034;-67
2022/11/18 05:23:59;;;;;;;1.95;0.30;;;6.90;99.90;;;;;;5029033;28;20480;-67
2022/11/18 05:26:26;;;;;;;0.90;0.20;;;6.80;99.90;;;;;;5043733;28;20080;-66
2022/11/18 05:28:51;;;;;;;0.22;0.20;;;6.70;99.90;;;;;;5048441;28;20025;-69
2022/11/18 05:31:17;;;;;;;1.27;0.20;;;6.70;99.90;;;;;;5032410;28;20033;-70
2022/11/18 05:33:44;;;;;;;1.08;0.28;;;6.70;99.90;;;;;;5028750;28;20033;-66
2022/11/18 05:36:13;;;;;;;0.70;0.20;;;6.60;99.90;;;;;;5031524;28;20211;-68
2022/11/18 05:38:39;;;;;;;1.13;0.20;;;6.70;99.90;;;;;;5050122;28;20108;-65
2022/11/18 05:41:05;;;;;;;0.98;0.30;;;6.70;99.90;;;;;;5040993;28;20156;-68
2022/11/18 05:43:31;;;;;;;1.63;0.40;;;6.60;99.90;;;;;;5049573;28;20377;-68
2022/11/18 05:45:58;;;;;;;1.20;0.40;;;6.60;99.90;;;;;;5028760;28;20484;-70
2022/11/18 05:48:24;;;;;;;1.48;0.40;;;6.60;99.90;;;;;;5033836;28;20056;-70
2022/11/18 05:50:52;;;;;;;0.77;0.32;;;6.60;99.90;;;;;;5015491;28;20034;-73
2022/11/18 05:53:20;;;;;;;0.40;0.20;;;6.60;99.90;;;;;;5010256;28;20037;-68
2022/11/18 05:56:23;;;;;;;3.80;0.30;;;6.50;99.90;;;;;;5039464;28;20037;-69
2022/11/18 05:58:48;;;;;;;0.52;0.10;;;6.50;99.90;;;;;;5035140;28;20060;-71
2022/11/18 06:01:26;;;;;;;0.30;0.10;;;6.40;99.90;;;;;;5025989;28;20135;-67
2022/11/18 06:03:52;;;;;;;0.40;0.10;;;6.40;99.90;;;;;;5028425;28;20466;-68
2022/11/18 06:06:21;;;;;;;0.10;0.00;;;6.40;99.90;;;;;;5028623;28;20441;-69
2022/11/18 06:08:55;;;;;;;0.40;0.10;;;6.40;99.90;;;;;;5028933;28;20104;-72
2022/11/18 06:11:22;;;;;;;0.00;0.00;;;6.40;99.90;;;;;;5047581;28;20029;-68
2022/11/18 06:14:11;;;;;;;0.32;0.13;;;6.30;99.90;;;;;;5031453;28;20804;-71
2022/11/18 06:16:39;;;;;;;1.15;0.10;;;6.30;99.90;;;;;;5028455;28;20083;-68
2022/11/18 06:19:06;;;;;;;0.50;0.10;;;6.30;99.90;;;;;;5028889;28;20079;-71
2022/11/18 06:21:32;;;;;;;0.88;0.10;;;6.30;99.90;;;;;;5027934;28;20144;-70
2022/11/18 06:23:58;;;;;;;1.73;0.17;;;6.30;99.90;;;;;;5047956;28;20486;-67
2022/11/18 06:26:24;;;;;;;0.75;0.17;;;6.30;99.90;;;;;;5030965;28;20572;-67
2022/11/18 06:28:50;;;;;;;1.05;0.25;;;6.30;99.90;;;;;;5028573;28;20037;-71
2022/11/18 06:31:15;;;;;;;1.58;0.45;;;6.30;99.90;;;;;;5032708;28;20045;-68
2022/11/18 06:33:42;;;;;;;1.17;0.57;;;6.30;99.90;;;;;;5028034;28;20553;-67
2022/11/18 06:36:08;;;;;;;2.15;0.60;;;6.30;99.90;;;;;;5026130;28;20056;-68
2022/11/18 06:38:33;;;;;;;3.67;0.60;;;6.30;99.90;;;;;;5029134;28;20025;-68
2022/11/18 06:41:00;;;;;;;1.27;0.60;;;6.30;99.90;;;;;;5027381;28;20351;-69
2022/11/18 06:43:40;;;;;;;1.08;0.40;;;6.40;99.90;;;;;;5027795;28;20045;-68
2022/11/18 06:48:52;;;;;;;1.10;0.70;;;6.30;99.90;;;;;;5029993;28;20043;-72
2022/11/18 06:51:18;;;;;;;1.40;0.60;;;6.30;99.90;;;;;;5040041;28;20029;-70
2022/11/18 06:53:44;;;;;;;2.55;0.98;;;6.30;99.90;;;;;;5025846;28;20065;-67
2022/11/18 06:56:12;;;;;;;2.75;1.20;;;6.30;99.90;;;;;;5039932;28;20056;-68
2022/11/18 06:58:38;;;;;;;2.83;1.10;;;6.30;99.90;;;;;;5037234;28;20029;-73
2022/11/18 07:01:39;;;;;;;1.63;0.80;;;6.40;99.90;;;;;;5034774;28;20074;-68
2022/11/18 07:04:05;;;;;;;1.83;0.70;;;6.30;99.90;;;;;;5016623;28;20759;-68
2022/11/18 07:06:33;;;;;;;1.55;0.60;;;6.30;99.90;;;;;;5030814;28;20030;-69
2022/11/18 07:09:00;;;;;;;1.85;0.70;;;6.30;99.90;;;;;;5017947;28;20025;-68
2022/11/18 07:11:27;;;;;;;1.92;0.80;;;6.30;99.90;;;;;;5040259;28;20037;-71
2022/11/18 07:13:53;;;;;;;1.55;0.80;;;6.30;99.90;;;;;;5038025;28;20030;-71
2022/11/18 07:16:22;;;;;;;2.53;0.93;;;6.30;99.90;;;;;;5035327;28;20033;-66
2022/11/18 07:18:49;;;;;;;1.08;0.60;;;6.30;99.90;;;;;;5029655;28;20030;-68
2022/11/18 07:21:17;;;;;;;1.40;0.57;;;6.30;99.90;;;;;;5029511;28;20032;-72
2022/11/18 07:23:43;;;;;;;1.92;0.60;;;6.30;99.90;;;;;;5014979;28;20057;-69
2022/11/18 07:26:09;;;;;;;2.40;0.77;;;6.30;99.90;;;;;;5047602;28;20052;-69
2022/11/18 07:28:35;;;;;;;2.22;0.98;;;6.30;99.90;;;;;;5040125;28;20727;-67
2022/11/18 07:31:01;;;;;;;1.63;0.70;;;6.30;99.90;;;;;;5027472;28;20033;-67
2022/11/18 07:33:27;;;;;;;1.92;0.95;;;6.30;99.90;;;;;;5035913;28;20030;-69
2022/11/18 07:35:53;;;;;;;2.70;1.00;;;6.40;99.90;;;;;;5032873;28;20060;-71
2022/11/18 07:38:18;;;;;;;4.25;1.30;;;6.40;99.90;;;;;;5026248;28;20025;-72
2022/11/18 07:40:44;;;;;;;3.72;1.27;;;6.40;99.90;;;;;;5043127;28;20033;-71
2022/11/18 07:43:09;;;;;;;3.47;1.48;;;6.40;99.90;;;;;;5045027;28;20037;-69
2022/11/18 07:45:35;;;;;;;2.88;1.38;;;6.50;99.90;;;;;;5037250;28;20448;-72
2022/11/18 07:48:01;;;;;;;6.90;1.95;;;6.50;99.90;;;;;;5030324;28;20145;-70
2022/11/18 07:50:26;;;;;;;3.83;2.00;;;6.50;99.90;;;;;;5033961;28;20108;-69
2022/11/18 07:52:55;;;;;;;4.30;2.00;;;6.50;99.90;;;;;;5047985;28;20033;-70
2022/11/18 07:55:21;;;;;;;4.70;1.95;;;6.50;99.90;;;;;;5047351;28;20045;-70
2022/11/18 07:57:46;;;;;;;3.35;1.83;;;6.50;99.90;;;;;;5048031;28;20454;-71
2022/11/18 08:00:13;;;;;;;5.65;2.10;;;6.50;99.90;;;;;;5037141;28;20147;-70
2022/11/18 08:02:38;;;;;;;3.75;2.08;;;6.50;99.90;;;;;;5018847;28;20048;-69
2022/11/18 08:05:04;;;;;;;6.63;2.22;;;6.50;99.90;;;;;;5020596;28;20030;-67
2022/11/18 08:07:30;;;;;;;5.43;2.22;;;6.50;99.90;;;;;;5043226;28;20025;-69
2022/11/18 08:09:55;;;;;;;4.20;1.95;;;6.50;99.90;;;;;;5034677;28;20501;-72
2022/11/18 08:12:21;;;;;;;3.33;2.00;;;6.50;99.90;;;;;;5034124;28;20171;-70
2022/11/18 08:14:47;;;;;;;4.03;2.08;;;6.50;99.90;;;;;;5037417;28;20036;-70
2022/11/18 08:17:12;;;;;;;3.97;2.08;;;6.50;99.90;;;;;;5035326;28;20052;-67
2022/11/18 08:19:38;;;;;;;4.50;2.25;;;6.60;99.90;;;;;;5029016;28;20433;-70
2022/11/18 08:22:03;;;;;;;4.85;2.25;;;6.60;99.90;;;;;;5030584;28;20058;-68
2022/11/18 08:24:29;;;;;;;2.03;1.13;;;6.60;99.90;;;;;;5034233;28;20049;-71
2022/11/18 08:26:55;;;;;;;2.08;1.15;;;6.60;99.90;;;;;;5032800;28;20645;-73
2022/11/18 08:29:20;;;;;;;3.30;1.52;;;6.70;99.90;;;;;;5030607;28;20033;-69
2022/11/18 08:31:46;;;;;;;2.35;0.95;;;6.70;99.90;;;;;;5038566;28;20462;-68
2022/11/18 08:34:11;;;;;;;2.47;0.90;;;6.70;99.90;;;;;;5045877;28;20033;-65
2022/11/18 08:36:38;;;;;;;1.85;0.63;;;6.70;99.90;;;;;;5040012;28;20503;-71
2022/11/18 08:39:06;;;;;;;1.27;0.50;;;6.70;99.90;;;;;;5050596;28;20061;-71
2022/11/18 08:41:40;;;;;;;0.95;0.50;;;6.80;99.90;;;;;;5048865;28;20028;-71
2022/11/18 08:44:07;;;;;;;1.70;0.50;;;6.80;99.90;;;;;;5034779;28;20493;-70
2022/11/18 08:46:32;;;;;;;1.58;0.70;;;6.80;99.90;;;;;;5039484;28;20493;-73
2022/11/18 08:48:59;;;;;;;1.33;0.47;;;6.80;99.90;;;;;;5043648;28;20033;-73
2022/11/18 08:51:25;;;;;;;1.00;0.40;;;6.80;99.90;;;;;;5045210;28;20063;-71
2022/11/18 08:53:51;;;;;;;1.90;0.43;;;6.80;99.90;;;;;;5033012;28;20115;-69
2022/11/18 08:56:19;;;;;;;1.33;0.40;;;6.90;99.90;;;;;;5030731;28;20172;-72
2022/11/18 08:58:45;;;;;;;1.00;0.60;;;6.90;99.90;;;;;;5042505;28;20135;-69
2022/11/18 09:01:11;;;;;;;1.00;0.40;;;6.90;99.90;;;;;;5037614;28;20117;-70
2022/11/18 09:03:37;;;;;;;1.15;0.45;;;6.90;99.90;;;;;;5033158;28;20099;-70
2022/11/18 09:06:25;;;;;;;2.45;0.50;;;6.90;99.90;;;;;;5028661;28;20029;-71
2022/11/18 09:08:51;;;;;;;0.80;0.30;;;7.00;99.90;;;;;;5042773;28;20187;-72
2022/11/18 09:11:20;;;;;;;0.85;0.30;;;6.90;99.90;;;;;;5048363;28;20646;-71
2022/11/18 09:13:46;;;;;;;0.55;0.30;;;7.00;99.90;;;;;;5032584;28;20462;-73
2022/11/18 09:16:12;;;;;;;0.60;0.30;;;7.00;99.90;;;;;;5029945;28;20067;-71
2022/11/18 09:18:38;;;;;;;1.02;0.50;;;7.00;99.90;;;;;;5049224;28;20044;-69
2022/11/18 09:21:06;;;;;;;0.90;0.30;;;7.10;99.90;;;;;;5049577;28;20033;-70
2022/11/18 09:23:34;;;;;;;1.00;0.30;;;7.10;99.90;;;;;;5028761;28;20054;-72
2022/11/18 09:26:03;;;;;;;5.40;0.43;;;7.10;99.90;;;;;;5038808;28;20025;-72
2022/11/18 09:28:29;;;;;;;1.27;0.20;;;7.00;99.90;;;;;;5045429;28;20029;-72
2022/11/18 09:30:54;;;;;;;1.92;0.47;;;7.00;99.90;;;;;;5037580;28;20025;-71
2022/11/18 09:33:21;;;;;;;0.93;0.30;;;7.00;99.90;;;;;;5048783;28;20031;-73
2022/11/18 09:35:47;;;;;;;1.20;0.20;;;7.00;99.90;;;;;;5047990;28;20037;-70
2022/11/18 09:38:12;;;;;;;0.90;0.40;;;7.00;99.90;;;;;;5037337;28;20029;-72
2022/11/18 09:41:05;;;;;;;0.88;0.30;;;7.00;99.90;;;;;;5029818;28;20048;-73
2022/11/18 09:43:39;;;;;;;0.70;0.40;;;7.00;99.90;;;;;;5032591;28;20036;-73
2022/11/18 09:46:19;;;;;;;0.80;0.40;;;6.90;99.90;;;;;;5028846;28;20574;-74
2022/11/18 09:51:37;;;;;;;2.25;0.70;;;6.90;99.90;;;;;;5047950;28;20064;-71
2022/11/18 09:54:03;;;;;;;1.92;0.55;;;6.90;99.90;;;;;;5028357;28;20042;-74
2022/11/18 09:56:29;;;;;;;1.35;0.80;;;6.80;99.90;;;;;;5030070;28;20405;-72
2022/11/18 09:58:55;;;;;;;1.45;0.80;;;6.80;99.90;;;;;;5029990;28;20040;-72
2022/11/18 10:01:21;;;;;;;3.13;0.63;;;6.80;99.90;;;;;;5033404;28;20016;-71
2022/11/18 10:03:47;;;;;;;2.10;1.10;;;6.70;99.90;;;;;;5043539;28;20044;-72
2022/11/18 10:06:28;;;;;;;2.55;1.08;;;6.70;99.90;;;;;;5035347;28;20567;-70
2022/11/18 10:09:24;;;;;;;5.25;1.20;;;6.80;99.90;;;;;;5029027;28;20124;-73
2022/11/18 10:12:12;;;;;;;2.58;1.10;;;6.80;99.90;;;;;;5021380;28;20037;-72
2022/11/18 10:15:08;;;;;;;2.10;1.10;;;6.70;99.90;;;;;;5033605;28;20033;-70
2022/11/18 10:17:57;;;;;;;2.17;1.15;;;6.70;99.90;;;;;;5037856;28;20473;-72
2022/11/18 10:20:32;;;;;;;3.03;1.42;;;6.70;99.90;;;;;;5042209;28;20108;-73
2022/11/18 10:23:14;;;;;;;3.08;1.27;;;6.80;99.90;;;;;;5031145;28;20107;-73
2022/11/18 10:25:39;;;;;;;2.20;1.33;;;6.80;99.90;;;;;;5039829;28;20418;-71
2022/11/18 10:28:24;;;;;;;2.35;1.33;;;6.80;99.90;;;;;;5040970;28;20083;-75
2022/11/18 10:30:51;;;;;;;4.43;1.35;;;6.80;99.90;;;;;;5027688;28;20130;-72
2022/11/18 10:33:18;;;;;;;2.72;1.30;;;6.80;99.90;;;;;;5047888;28;20029;-71
2022/11/18 10:35:44;;;;;;;2.65;1.20;;;6.80;99.90;;;;;;5039652;28;20112;-73
2022/11/18 10:38:16;;;;;;;2.20;1.15;;;6.80;99.90;;;;;;5028277;28;20167;-72
2022/11/18 10:40:51;;;;;;;2.58;1.20;;;6.80;99.90;;;;;;5025154;28;20112;-72
2022/11/18 10:43:47;;;;;;;1.80;1.23;;;6.80;99.90;;;;;;5029864;28;20044;-73
2022/11/18 10:46:31;;;;;;;2.75;1.27;;;6.80;99.90;;;;;;5028765;28;20061;-74
2022/11/18 10:49:09;;;;;;;2.47;0.98;;;6.80;99.90;;;;;;5042590;28;20056;-72
2022/11/18 10:51:46;;;;;;;4.05;1.10;;;6.80;99.90;;;;;;5030404;28;20033;-71
2022/11/18 10:54:15;;;;;;;2.15;1.23;;;6.80;99.90;;;;;;5038815;28;20045;-71
2022/11/18 10:57:09;;;;;;;3.47;1.60;;;6.90;99.90;;;;;;5040917;28;20355;-71
2022/11/18 10:59:52;;;;;;;2.20;1.30;;;6.90;99.90;;;;;;5018294;28;20048;-71
2022/11/18 11:02:28;;;;;;;3.22;1.90;;;7.00;99.90;;;;;;5032823;28;20054;-71
2022/11/18 11:04:54;;;;;;;3.25;1.33;;;7.00;99.90;;;;;;5041864;28;20080;-72
2022/11/18 11:07:32;;;;;;;1.95;1.20;;;7.10;99.90;;;;;;5025168;28;20861;-70
2022/11/18 11:10:05;;;;;;;2.17;1.20;;;7.20;99.90;;;;;;5035519;28;20057;-72
2022/11/18 11:12:33;;;;;;;2.78;1.70;;;7.20;99.90;;;;;;5028427;28;20033;-72
2022/11/18 11:15:08;;;;;;;2.28;1.33;;;7.20;99.90;;;;;;5022375;28;20034;-73
2022/11/18 11:20:41;;;;;;;1.73;1.00;;;7.20;99.90;;;;;;5048142;28;20143;-71
2022/11/18 11:23:12;;;;;;;1.95;1.05;;;7.30;99.90;;;;;;5025396;28;20053;-74
2022/11/18 11:25:58;;;;;;;3.47;1.33;;;7.30;99.90;;;;;;5048110;28;20033;-72
2022/11/18 11:28:47;;;;;;;2.75;1.48;;;7.30;99.90;;;;;;5040385;28;20505;-73
2022/11/18 11:31:22;;;;;;;2.28;1.40;;;7.30;99.90;;;;;;5017447;28;20033;-72
2022/11/18 11:34:05;;;;;;;5.53;1.85;;;7.30;99.90;;;;;;5040348;28;20111;-71
2022/11/18 11:36:48;;;;;;;3.00;1.67;;;7.30;99.90;;;;;;5012143;28;20064;-72
2022/11/18 11:39:13;;;;;;;3.25;2.13;;;7.30;99.90;;;;;;5026724;28;20026;-72
2022/11/18 11:42:07;;;;;;;3.15;2.00;;;7.30;99.90;;;;;;5030380;28;20052;-71
2022/11/18 11:45:14;;;;;;;6.03;2.42;;;7.30;99.90;;;;;;5029646;28;20033;-71
2022/11/18 11:48:01;;;;;;;3.67;2.25;;;7.30;99.90;;;;;;5008644;28;20116;-70
2022/11/18 11:50:59;;;;;;;3.85;1.95;;;7.40;99.90;;;;;;5044108;28;20805;-72
2022/11/18 11:53:53;;;;;;;4.68;2.10;;;7.40;99.90;;;;;;5045552;28;20458;-71
2022/11/18 11:56:58;;;;;;;4.35;2.38;;;7.40;99.90;;;;;;5027033;28;20084;-73
2022/11/18 11:59:44;;;;;;;7.18;2.05;;;7.40;99.90;;;;;;5032635;28;20092;-72
2022/11/18 12:02:28;;;;;;;2.28;1.48;;;7.40;99.90;;;;;;5027436;28;20045;-72
2022/11/18 12:04:56;;;;;;;3.75;1.83;;;7.40;99.90;;;;;;5015502;28;20028;-71
2022/11/18 12:07:31;;;;;;;2.90;1.55;;;7.50;99.90;;;;;;5030358;28;20032;-72
2022/11/18 12:10:27;;;;;;;4.43;1.80;;;7.40;99.90;;;;;;5032592;28;20393;-72
2022/11/18 12:13:23;;;;;;;3.75;2.13;;;7.50;99.90;;;;;;5012126;28;20041;-72
2022/11/18 12:15:51;;;;;;;4.03;2.10;;;7.50;99.90;;;;;;5015403;28;20072;-72
2022/11/18 12:18:40;;;;;;;3.97;2.20;;;7.60;99.90;;;;;;5030807;28;20037;-71
2022/11/18 12:21:05;;;;;;;3.70;2.15;;;7.60;99.90;;;;;;5048637;28;20041;-73
2022/11/18 12:23:32;;;;;;;4.13;1.92;;;7.60;99.90;;;;;;5049224;28;20072;-72
2022/11/18 12:26:08;;;;;;;4.18;2.33;;;7.60;99.90;;;;;;5051342;28;20059;-71
2022/11/18 12:28:44;;;;;;;6.40;2.60;;;7.70;99.90;;;;;;5039134;28;20033;-73
2022/11/18 12:31:20;;;;;;;5.55;2.60;;;7.70;99.90;;;;;;5028541;28;20556;-72
2022/11/18 12:33:56;;;;;;;4.68;2.50;;;7.70;99.90;;;;;;5044590;28;20061;-72
2022/11/18 12:36:27;;;;;;;4.95;2.90;;;7.80;99.90;;;;;;5034791;28;20239;-72
2022/11/18 12:38:54;;;;;;;7.53;2.92;;;7.80;99.90;;;;;;5019739;28;20035;-72
2022/11/18 12:44:33;;;;;;;5.03;2.55;;;7.80;99.90;;;;;;5012006;28;20049;-71
2022/11/18 12:47:02;;;;;;;5.22;2.72;;;7.90;99.90;;;;;;5031466;28;20105;-72
2022/11/18 12:49:28;;;;;;;5.27;2.50;;;8.00;99.90;;;;;;5035586;28;20284;-71
2022/11/18 12:51:58;;;;;;;4.68;2.70;;;8.10;99.90;;;;;;5047106;28;20555;-70
2022/11/18 12:54:29;;;;;;;6.65;2.30;;;8.10;99.90;;;;;;5041099;28;20056;-71
2022/11/18 12:57:02;;;;;;;5.22;2.40;;;8.20;99.90;;;;;;5038131;28;20057;-73
2022/11/18 12:59:35;;;;;;;4.25;2.40;;;8.20;99.90;;;;;;5030131;28;20042;-72
2022/11/18 13:02:02;;;;;;;4.53;1.98;;;8.20;99.90;;;;;;5035186;28;20026;-72
2022/11/18 13:04:28;;;;;;;4.30;2.35;;;8.30;99.90;;;;;;5030231;28;20040;-72
2022/11/18 13:06:55;;;;;;;4.57;2.40;;;8.30;99.90;;;;;;5031898;28;20025;-72
2022/11/18 13:09:23;;;;;;;5.85;2.60;;;8.20;99.90;;;;;;5034513;28;20048;-72
2022/11/18 13:11:51;;;;;;;6.15;2.95;;;8.30;99.90;;;;;;5029928;28;20036;-71
2022/11/18 13:20:26;;;;;;;6.38;2.35;;;9.20;99.90;;;;;;5029393;28;20031;-71
2022/11/18 13:25:43;;;;;;;4.05;2.28;;;8.90;99.90;;;;;;5040573;28;20040;-70
2022/11/18 13:28:30;;;;;;;3.67;1.90;;;8.80;99.90;;;;;;5043179;28;20052;-71
2022/11/18 13:31:19;;;;;;;4.32;1.60;;;8.70;99.90;;;;;;5034080;28;20029;-70
2022/11/18 13:33:45;;;;;;;2.92;1.35;;;8.60;99.90;;;;;;5031141;28;20045;-71
2022/11/18 13:36:26;;;;;;;4.75;1.65;;;8.50;99.90;;;;;;5032748;28;20044;-73
2022/11/18 13:39:00;;;;;;;3.97;1.63;;;8.50;99.90;;;;;;5043635;28;20029;-71
2022/11/18 13:41:33;;;;;;;4.93;1.50;;;8.60;99.90;;;;;;5047542;28;20028;-71
2022/11/18 13:44:17;;;;;;;2.40;1.40;;;8.70;99.90;;;;;;5037134;28;20043;-71
2022/11/18 13:46:46;;;;;;;6.15;2.00;;;8.80;99.90;;;;;;5029431;28;20021;-71
2022/11/18 13:49:21;;;;;;;5.70;1.70;;;8.80;99.90;;;;;;5037897;28;20025;-73